sensor_id;sensor_type;location;lat;lon;timestamp;P1;durP1;ratioP1;P2;durP2;ratioP2
12476;SDS011;6303;51.504;6.300;2023-03-03T00:01:32;6.75;;;5.15;;
12476;SDS011;6303;51.504;6.300;2023-03-03T00:04:01;5.20;;;4.55;;
12476;SDS011;6303;51.504;6.300;2023-03-03T00:06:28;7.38;;;5.22;;
12476;SDS011;6303;51.504;6.300;2023-03-03T00:08:55;5.78;;;5.07;;
12476;SDS011;6303;51.504;6.300;2023-03-03T00:11:22;5.90;;;5.30;;
12476;SDS011;6303;51.504;6.300;2023-03-03T00:13:50;5.90;;;4.72;;
12476;SDS011;6303;51.504;6.300;2023-03-03T00:16:23;5.68;;;4.68;;
12476;SDS011;6303;51.504;6.300;2023-03-03T00:18:51;6.07;;;5.00;;
12476;SDS011;6303;51.504;6.300;2023-03-03T00:21:27;6.25;;;5.18;;
12476;SDS011;6303;51.504;6.300;2023-03-03T00:26:47;5.90;;;4.88;;
12476;SDS011;6303;51.504;6.300;2023-03-03T00:29:23;5.90;;;5.22;;
12476;SDS011;6303;51.504;6.300;2023-03-03T00:31:59;11.30;;;4.75;;
12476;SDS011;6303;51.504;6.300;2023-03-03T00:34:41;6.15;;;4.80;;
12476;SDS011;6303;51.504;6.300;2023-03-03T00:37:18;6.22;;;4.68;;
12476;SDS011;6303;51.504;6.300;2023-03-03T00:39:52;6.15;;;4.68;;
12476;SDS011;6303;51.504;6.300;2023-03-03T00:42:25;6.53;;;4.55;;
12476;SDS011;6303;51.504;6.300;2023-03-03T00:44:55;5.68;;;4.93;;
12476;SDS011;6303;51.504;6.300;2023-03-03T00:47:25;5.88;;;4.88;;
12476;SDS011;6303;51.504;6.300;2023-03-03T00:49:54;5.60;;;4.78;;
12476;SDS011;6303;51.504;6.300;2023-03-03T00:52:40;5.05;;;4.10;;
12476;SDS011;6303;51.504;6.300;2023-03-03T00:55:11;6.10;;;4.50;;
12476;SDS011;6303;51.504;6.300;2023-03-03T00:57:38;5.10;;;4.38;;
12476;SDS011;6303;51.504;6.300;2023-03-03T01:00:09;6.00;;;4.55;;
12476;SDS011;6303;51.504;6.300;2023-03-03T01:02:37;4.65;;;4.07;;
12476;SDS011;6303;51.504;6.300;2023-03-03T01:05:04;5.90;;;4.50;;
12476;SDS011;6303;51.504;6.300;2023-03-03T01:07:32;5.30;;;4.32;;
12476;SDS011;6303;51.504;6.300;2023-03-03T01:10:01;6.28;;;4.70;;
12476;SDS011;6303;51.504;6.300;2023-03-03T01:12:28;5.38;;;4.57;;
12476;SDS011;6303;51.504;6.300;2023-03-03T01:14:55;5.85;;;4.75;;
12476;SDS011;6303;51.504;6.300;2023-03-03T01:17:22;5.53;;;4.60;;
12476;SDS011;6303;51.504;6.300;2023-03-03T01:19:50;5.47;;;4.32;;
12476;SDS011;6303;51.504;6.300;2023-03-03T01:22:17;6.07;;;4.65;;
12476;SDS011;6303;51.504;6.300;2023-03-03T01:24:44;5.13;;;4.63;;
12476;SDS011;6303;51.504;6.300;2023-03-03T01:27:12;5.30;;;4.57;;
12476;SDS011;6303;51.504;6.300;2023-03-03T01:29:39;6.32;;;5.15;;
12476;SDS011;6303;51.504;6.300;2023-03-03T01:32:06;5.55;;;4.75;;
12476;SDS011;6303;51.504;6.300;2023-03-03T01:34:33;6.07;;;4.85;;
12476;SDS011;6303;51.504;6.300;2023-03-03T01:37:00;6.43;;;4.88;;
12476;SDS011;6303;51.504;6.300;2023-03-03T01:39:27;6.72;;;4.70;;
12476;SDS011;6303;51.504;6.300;2023-03-03T01:41:54;6.65;;;4.90;;
12476;SDS011;6303;51.504;6.300;2023-03-03T01:44:23;5.40;;;4.57;;
12476;SDS011;6303;51.504;6.300;2023-03-03T01:46:53;5.13;;;4.55;;
12476;SDS011;6303;51.504;6.300;2023-03-03T01:49:24;5.78;;;5.03;;
12476;SDS011;6303;51.504;6.300;2023-03-03T01:51:54;6.10;;;4.40;;
12476;SDS011;6303;51.504;6.300;2023-03-03T01:54:25;5.80;;;4.70;;
12476;SDS011;6303;51.504;6.300;2023-03-03T01:56:55;6.15;;;4.78;;
12476;SDS011;6303;51.504;6.300;2023-03-03T01:59:26;5.78;;;4.70;;
12476;SDS011;6303;51.504;6.300;2023-03-03T02:01:56;5.68;;;5.00;;
12476;SDS011;6303;51.504;6.300;2023-03-03T02:04:23;5.10;;;4.53;;
12476;SDS011;6303;51.504;6.300;2023-03-03T02:06:53;5.85;;;5.00;;
12476;SDS011;6303;51.504;6.300;2023-03-03T02:09:26;5.65;;;4.88;;
12476;SDS011;6303;51.504;6.300;2023-03-03T02:12:02;6.18;;;4.72;;
12476;SDS011;6303;51.504;6.300;2023-03-03T02:14:33;5.30;;;4.35;;
12476;SDS011;6303;51.504;6.300;2023-03-03T02:17:01;5.43;;;4.15;;
12476;SDS011;6303;51.504;6.300;2023-03-03T02:19:30;4.47;;;3.88;;
12476;SDS011;6303;51.504;6.300;2023-03-03T02:22:04;5.60;;;4.68;;
12476;SDS011;6303;51.504;6.300;2023-03-03T02:24:32;5.78;;;4.90;;
12476;SDS011;6303;51.504;6.300;2023-03-03T02:27:06;5.28;;;4.57;;
12476;SDS011;6303;51.504;6.300;2023-03-03T02:29:33;4.85;;;4.30;;
12476;SDS011;6303;51.504;6.300;2023-03-03T02:32:01;4.82;;;4.05;;
12476;SDS011;6303;51.504;6.300;2023-03-03T02:34:28;6.00;;;4.80;;
12476;SDS011;6303;51.504;6.300;2023-03-03T02:36:55;4.93;;;4.43;;
12476;SDS011;6303;51.504;6.300;2023-03-03T02:39:23;6.50;;;4.68;;
12476;SDS011;6303;51.504;6.300;2023-03-03T02:41:52;5.72;;;4.88;;
12476;SDS011;6303;51.504;6.300;2023-03-03T02:44:30;5.88;;;4.88;;
12476;SDS011;6303;51.504;6.300;2023-03-03T02:46:59;6.05;;;4.38;;
12476;SDS011;6303;51.504;6.300;2023-03-03T02:49:26;5.53;;;4.53;;
12476;SDS011;6303;51.504;6.300;2023-03-03T02:51:56;5.35;;;4.43;;
12476;SDS011;6303;51.504;6.300;2023-03-03T02:54:25;6.35;;;4.68;;
12476;SDS011;6303;51.504;6.300;2023-03-03T02:56:54;6.22;;;4.78;;
12476;SDS011;6303;51.504;6.300;2023-03-03T02:59:21;5.65;;;4.68;;
12476;SDS011;6303;51.504;6.300;2023-03-03T03:01:51;5.78;;;4.78;;
12476;SDS011;6303;51.504;6.300;2023-03-03T03:04:20;6.75;;;4.60;;
12476;SDS011;6303;51.504;6.300;2023-03-03T03:06:49;5.78;;;4.53;;
12476;SDS011;6303;51.504;6.300;2023-03-03T03:09:18;5.20;;;4.35;;
12476;SDS011;6303;51.504;6.300;2023-03-03T03:11:48;6.38;;;4.85;;
12476;SDS011;6303;51.504;6.300;2023-03-03T03:14:22;6.40;;;4.82;;
12476;SDS011;6303;51.504;6.300;2023-03-03T03:16:51;6.95;;;4.90;;
12476;SDS011;6303;51.504;6.300;2023-03-03T03:19:18;6.28;;;5.10;;
12476;SDS011;6303;51.504;6.300;2023-03-03T03:21:46;6.35;;;4.97;;
12476;SDS011;6303;51.504;6.300;2023-03-03T03:24:14;5.28;;;4.25;;
12476;SDS011;6303;51.504;6.300;2023-03-03T03:26:47;6.20;;;4.90;;
12476;SDS011;6303;51.504;6.300;2023-03-03T03:29:14;5.80;;;4.82;;
12476;SDS011;6303;51.504;6.300;2023-03-03T03:31:41;6.47;;;4.78;;
12476;SDS011;6303;51.504;6.300;2023-03-03T03:34:10;7.70;;;5.43;;
12476;SDS011;6303;51.504;6.300;2023-03-03T03:36:37;6.88;;;5.13;;
12476;SDS011;6303;51.504;6.300;2023-03-03T03:39:04;6.40;;;4.90;;
12476;SDS011;6303;51.504;6.300;2023-03-03T03:41:34;5.85;;;4.80;;
12476;SDS011;6303;51.504;6.300;2023-03-03T03:44:01;6.65;;;4.90;;
12476;SDS011;6303;51.504;6.300;2023-03-03T03:46:29;7.00;;;5.32;;
12476;SDS011;6303;51.504;6.300;2023-03-03T03:48:56;6.20;;;4.72;;
12476;SDS011;6303;51.504;6.300;2023-03-03T03:51:25;6.88;;;5.20;;
12476;SDS011;6303;51.504;6.300;2023-03-03T03:53:53;5.55;;;4.88;;
12476;SDS011;6303;51.504;6.300;2023-03-03T03:56:20;6.40;;;4.82;;
12476;SDS011;6303;51.504;6.300;2023-03-03T03:58:51;6.70;;;4.90;;
12476;SDS011;6303;51.504;6.300;2023-03-03T04:01:18;7.10;;;4.72;;
12476;SDS011;6303;51.504;6.300;2023-03-03T04:03:48;6.97;;;5.15;;
12476;SDS011;6303;51.504;6.300;2023-03-03T04:06:19;6.72;;;4.88;;
12476;SDS011;6303;51.504;6.300;2023-03-03T04:08:48;6.75;;;5.15;;
12476;SDS011;6303;51.504;6.300;2023-03-03T04:11:18;7.00;;;5.00;;
12476;SDS011;6303;51.504;6.300;2023-03-03T04:13:45;7.47;;;5.47;;
12476;SDS011;6303;51.504;6.300;2023-03-03T04:16:12;7.15;;;5.15;;
12476;SDS011;6303;51.504;6.300;2023-03-03T04:18:41;7.45;;;5.47;;
12476;SDS011;6303;51.504;6.300;2023-03-03T04:21:10;7.30;;;5.47;;
12476;SDS011;6303;51.504;6.300;2023-03-03T04:23:38;8.20;;;5.82;;
12476;SDS011;6303;51.504;6.300;2023-03-03T04:26:07;8.20;;;5.53;;
12476;SDS011;6303;51.504;6.300;2023-03-03T04:28:35;8.55;;;5.72;;
12476;SDS011;6303;51.504;6.300;2023-03-03T04:31:02;7.07;;;4.72;;
12476;SDS011;6303;51.504;6.300;2023-03-03T04:33:31;7.68;;;5.95;;
12476;SDS011;6303;51.504;6.300;2023-03-03T04:35:59;8.57;;;5.65;;
12476;SDS011;6303;51.504;6.300;2023-03-03T04:38:27;7.75;;;5.38;;
12476;SDS011;6303;51.504;6.300;2023-03-03T04:40:54;9.50;;;5.75;;
12476;SDS011;6303;51.504;6.300;2023-03-03T04:43:26;8.00;;;5.55;;
12476;SDS011;6303;51.504;6.300;2023-03-03T04:45:54;8.35;;;5.68;;
12476;SDS011;6303;51.504;6.300;2023-03-03T04:48:22;8.38;;;5.68;;
12476;SDS011;6303;51.504;6.300;2023-03-03T04:50:49;7.25;;;5.60;;
12476;SDS011;6303;51.504;6.300;2023-03-03T04:53:16;9.27;;;6.10;;
12476;SDS011;6303;51.504;6.300;2023-03-03T04:55:43;8.57;;;5.90;;
12476;SDS011;6303;51.504;6.300;2023-03-03T04:58:10;9.68;;;6.43;;
12476;SDS011;6303;51.504;6.300;2023-03-03T05:00:40;8.40;;;5.95;;
12476;SDS011;6303;51.504;6.300;2023-03-03T05:03:09;9.85;;;6.32;;
12476;SDS011;6303;51.504;6.300;2023-03-03T05:05:40;9.60;;;6.30;;
12476;SDS011;6303;51.504;6.300;2023-03-03T05:08:07;9.55;;;6.20;;
12476;SDS011;6303;51.504;6.300;2023-03-03T05:10:34;8.85;;;6.07;;
12476;SDS011;6303;51.504;6.300;2023-03-03T05:13:01;8.68;;;5.90;;
12476;SDS011;6303;51.504;6.300;2023-03-03T05:15:28;8.75;;;6.18;;
12476;SDS011;6303;51.504;6.300;2023-03-03T05:17:57;8.15;;;5.80;;
12476;SDS011;6303;51.504;6.300;2023-03-03T05:20:24;7.72;;;5.35;;
12476;SDS011;6303;51.504;6.300;2023-03-03T05:22:52;8.32;;;5.97;;
12476;SDS011;6303;51.504;6.300;2023-03-03T05:25:19;8.63;;;5.90;;
12476;SDS011;6303;51.504;6.300;2023-03-03T05:27:47;8.15;;;6.30;;
12476;SDS011;6303;51.504;6.300;2023-03-03T05:30:14;9.02;;;6.20;;
12476;SDS011;6303;51.504;6.300;2023-03-03T05:32:41;7.68;;;5.63;;
12476;SDS011;6303;51.504;6.300;2023-03-03T05:35:10;8.48;;;5.97;;
12476;SDS011;6303;51.504;6.300;2023-03-03T05:37:37;9.48;;;6.40;;
12476;SDS011;6303;51.504;6.300;2023-03-03T05:40:07;8.70;;;6.25;;
12476;SDS011;6303;51.504;6.300;2023-03-03T05:42:35;9.25;;;6.22;;
12476;SDS011;6303;51.504;6.300;2023-03-03T05:45:03;8.38;;;5.80;;
12476;SDS011;6303;51.504;6.300;2023-03-03T05:47:30;8.18;;;5.80;;
12476;SDS011;6303;51.504;6.300;2023-03-03T05:49:57;8.55;;;5.60;;
12476;SDS011;6303;51.504;6.300;2023-03-03T05:52:28;9.60;;;6.68;;
12476;SDS011;6303;51.504;6.300;2023-03-03T05:54:55;9.32;;;5.93;;
12476;SDS011;6303;51.504;6.300;2023-03-03T05:57:22;7.85;;;5.80;;
12476;SDS011;6303;51.504;6.300;2023-03-03T05:59:49;8.73;;;6.05;;
12476;SDS011;6303;51.504;6.300;2023-03-03T06:02:16;9.23;;;6.15;;
12476;SDS011;6303;51.504;6.300;2023-03-03T06:04:43;10.43;;;5.85;;
12476;SDS011;6303;51.504;6.300;2023-03-03T06:07:10;7.50;;;5.57;;
12476;SDS011;6303;51.504;6.300;2023-03-03T06:09:38;8.15;;;6.03;;
12476;SDS011;6303;51.504;6.300;2023-03-03T06:12:06;7.95;;;5.68;;
12476;SDS011;6303;51.504;6.300;2023-03-03T06:14:33;8.43;;;5.88;;
12476;SDS011;6303;51.504;6.300;2023-03-03T06:17:00;8.35;;;5.85;;
12476;SDS011;6303;51.504;6.300;2023-03-03T06:19:27;8.80;;;6.25;;
12476;SDS011;6303;51.504;6.300;2023-03-03T06:21:54;8.73;;;5.63;;
12476;SDS011;6303;51.504;6.300;2023-03-03T06:24:21;8.20;;;5.75;;
12476;SDS011;6303;51.504;6.300;2023-03-03T06:26:50;8.10;;;5.63;;
12476;SDS011;6303;51.504;6.300;2023-03-03T06:29:18;6.53;;;5.38;;
12476;SDS011;6303;51.504;6.300;2023-03-03T06:31:45;7.38;;;5.28;;
12476;SDS011;6303;51.504;6.300;2023-03-03T06:34:12;9.13;;;6.40;;
12476;SDS011;6303;51.504;6.300;2023-03-03T06:36:39;8.80;;;6.15;;
12476;SDS011;6303;51.504;6.300;2023-03-03T06:39:06;10.57;;;6.60;;
12476;SDS011;6303;51.504;6.300;2023-03-03T06:41:33;8.70;;;5.75;;
12476;SDS011;6303;51.504;6.300;2023-03-03T06:44:01;11.70;;;6.85;;
12476;SDS011;6303;51.504;6.300;2023-03-03T06:46:28;11.52;;;7.10;;
12476;SDS011;6303;51.504;6.300;2023-03-03T06:48:55;10.63;;;6.93;;
12476;SDS011;6303;51.504;6.300;2023-03-03T06:51:23;10.45;;;7.50;;
12476;SDS011;6303;51.504;6.300;2023-03-03T06:53:54;13.50;;;7.18;;
12476;SDS011;6303;51.504;6.300;2023-03-03T06:56:23;10.20;;;7.00;;
12476;SDS011;6303;51.504;6.300;2023-03-03T06:58:52;10.35;;;6.95;;
12476;SDS011;6303;51.504;6.300;2023-03-03T07:01:23;10.85;;;7.13;;
12476;SDS011;6303;51.504;6.300;2023-03-03T07:03:50;9.30;;;6.68;;
12476;SDS011;6303;51.504;6.300;2023-03-03T07:06:19;8.70;;;6.47;;
12476;SDS011;6303;51.504;6.300;2023-03-03T07:08:48;9.85;;;6.47;;
12476;SDS011;6303;51.504;6.300;2023-03-03T07:11:16;9.02;;;6.93;;
12476;SDS011;6303;51.504;6.300;2023-03-03T07:13:46;11.00;;;6.97;;
12476;SDS011;6303;51.504;6.300;2023-03-03T07:16:15;10.00;;;6.78;;
12476;SDS011;6303;51.504;6.300;2023-03-03T07:18:47;9.52;;;6.40;;
12476;SDS011;6303;51.504;6.300;2023-03-03T07:21:18;7.57;;;6.18;;
12476;SDS011;6303;51.504;6.300;2023-03-03T07:23:47;8.27;;;5.70;;
12476;SDS011;6303;51.504;6.300;2023-03-03T07:26:16;8.38;;;6.13;;
12476;SDS011;6303;51.504;6.300;2023-03-03T07:28:48;8.93;;;6.43;;
12476;SDS011;6303;51.504;6.300;2023-03-03T07:31:25;8.77;;;6.40;;
12476;SDS011;6303;51.504;6.300;2023-03-03T07:33:57;9.55;;;6.18;;
12476;SDS011;6303;51.504;6.300;2023-03-03T07:36:26;7.43;;;5.90;;
12476;SDS011;6303;51.504;6.300;2023-03-03T07:38:56;7.57;;;6.07;;
12476;SDS011;6303;51.504;6.300;2023-03-03T07:41:26;8.45;;;5.78;;
12476;SDS011;6303;51.504;6.300;2023-03-03T07:43:54;8.90;;;6.47;;
12476;SDS011;6303;51.504;6.300;2023-03-03T07:46:26;9.30;;;5.82;;
12476;SDS011;6303;51.504;6.300;2023-03-03T07:48:57;8.43;;;5.88;;
12476;SDS011;6303;51.504;6.300;2023-03-03T07:51:26;7.80;;;5.85;;
12476;SDS011;6303;51.504;6.300;2023-03-03T07:53:59;7.95;;;6.10;;
12476;SDS011;6303;51.504;6.300;2023-03-03T07:56:43;7.25;;;5.60;;
12476;SDS011;6303;51.504;6.300;2023-03-03T07:59:15;6.55;;;5.28;;
12476;SDS011;6303;51.504;6.300;2023-03-03T08:01:46;8.02;;;5.97;;
12476;SDS011;6303;51.504;6.300;2023-03-03T08:04:19;7.40;;;5.53;;
12476;SDS011;6303;51.504;6.300;2023-03-03T08:06:53;6.78;;;5.28;;
12476;SDS011;6303;51.504;6.300;2023-03-03T08:15:22;7.60;;;5.90;;
12476;SDS011;6303;51.504;6.300;2023-03-03T08:17:51;7.78;;;5.93;;
12476;SDS011;6303;51.504;6.300;2023-03-03T08:23:12;8.13;;;5.60;;
12476;SDS011;6303;51.504;6.300;2023-03-03T08:25:40;7.35;;;5.15;;
12476;SDS011;6303;51.504;6.300;2023-03-03T08:28:08;7.53;;;5.60;;
12476;SDS011;6303;51.504;6.300;2023-03-03T08:30:35;7.90;;;5.25;;
12476;SDS011;6303;51.504;6.300;2023-03-03T08:33:02;7.22;;;5.70;;
12476;SDS011;6303;51.504;6.300;2023-03-03T08:35:29;8.43;;;5.18;;
12476;SDS011;6303;51.504;6.300;2023-03-03T08:37:58;7.75;;;5.80;;
12476;SDS011;6303;51.504;6.300;2023-03-03T08:40:25;6.97;;;5.18;;
12476;SDS011;6303;51.504;6.300;2023-03-03T08:42:52;7.43;;;5.32;;
12476;SDS011;6303;51.504;6.300;2023-03-03T08:45:19;6.90;;;5.40;;
12476;SDS011;6303;51.504;6.300;2023-03-03T08:47:46;8.25;;;5.18;;
12476;SDS011;6303;51.504;6.300;2023-03-03T08:50:13;6.38;;;5.05;;
12476;SDS011;6303;51.504;6.300;2023-03-03T08:52:40;6.55;;;5.00;;
12476;SDS011;6303;51.504;6.300;2023-03-03T08:55:09;7.95;;;5.40;;
12476;SDS011;6303;51.504;6.300;2023-03-03T08:57:37;7.65;;;5.35;;
12476;SDS011;6303;51.504;6.300;2023-03-03T09:00:05;6.60;;;4.75;;
12476;SDS011;6303;51.504;6.300;2023-03-03T09:02:33;7.25;;;5.50;;
12476;SDS011;6303;51.504;6.300;2023-03-03T09:05:00;7.13;;;5.05;;
12476;SDS011;6303;51.504;6.300;2023-03-03T09:07:27;8.23;;;5.38;;
12476;SDS011;6303;51.504;6.300;2023-03-03T09:09:54;7.57;;;5.43;;
12476;SDS011;6303;51.504;6.300;2023-03-03T09:12:24;7.55;;;5.60;;
12476;SDS011;6303;51.504;6.300;2023-03-03T09:14:55;7.45;;;5.05;;
12476;SDS011;6303;51.504;6.300;2023-03-03T09:17:24;7.30;;;5.07;;
12476;SDS011;6303;51.504;6.300;2023-03-03T09:19:54;6.85;;;5.03;;
12476;SDS011;6303;51.504;6.300;2023-03-03T09:22:24;6.15;;;4.50;;
12476;SDS011;6303;51.504;6.300;2023-03-03T09:24:52;6.53;;;5.13;;
12476;SDS011;6303;51.504;6.300;2023-03-03T09:27:26;7.07;;;4.90;;
12476;SDS011;6303;51.504;6.300;2023-03-03T09:29:54;6.70;;;5.18;;
12476;SDS011;6303;51.504;6.300;2023-03-03T09:32:29;8.20;;;5.15;;
12476;SDS011;6303;51.504;6.300;2023-03-03T09:35:00;6.35;;;5.18;;
12476;SDS011;6303;51.504;6.300;2023-03-03T09:37:51;7.20;;;4.95;;
12476;SDS011;6303;51.504;6.300;2023-03-03T09:40:27;6.70;;;4.85;;
12476;SDS011;6303;51.504;6.300;2023-03-03T09:43:10;5.75;;;4.75;;
12476;SDS011;6303;51.504;6.300;2023-03-03T09:45:47;6.35;;;4.88;;
12476;SDS011;6303;51.504;6.300;2023-03-03T09:54:32;5.68;;;4.38;;
12476;SDS011;6303;51.504;6.300;2023-03-03T09:57:09;6.20;;;4.95;;
12476;SDS011;6303;51.504;6.300;2023-03-03T09:59:50;5.30;;;4.32;;
12476;SDS011;6303;51.504;6.300;2023-03-03T10:02:44;8.55;;;5.35;;
12476;SDS011;6303;51.504;6.300;2023-03-03T10:05:20;6.70;;;4.95;;
12476;SDS011;6303;51.504;6.300;2023-03-03T10:08:08;6.80;;;5.03;;
12476;SDS011;6303;51.504;6.300;2023-03-03T10:10:49;6.25;;;4.93;;
12476;SDS011;6303;51.504;6.300;2023-03-03T10:13:25;7.05;;;4.82;;
12476;SDS011;6303;51.504;6.300;2023-03-03T10:16:17;6.93;;;4.75;;
12476;SDS011;6303;51.504;6.300;2023-03-03T10:18:58;6.10;;;4.68;;
12476;SDS011;6303;51.504;6.300;2023-03-03T10:21:28;5.97;;;4.43;;
12476;SDS011;6303;51.504;6.300;2023-03-03T10:24:02;6.03;;;4.95;;
12476;SDS011;6303;51.504;6.300;2023-03-03T10:26:52;5.57;;;4.70;;
12476;SDS011;6303;51.504;6.300;2023-03-03T10:29:28;5.53;;;4.55;;
12476;SDS011;6303;51.504;6.300;2023-03-03T10:32:08;6.10;;;4.68;;
12476;SDS011;6303;51.504;6.300;2023-03-03T10:35:05;7.55;;;4.70;;
12476;SDS011;6303;51.504;6.300;2023-03-03T10:37:47;6.47;;;4.30;;
12476;SDS011;6303;51.504;6.300;2023-03-03T10:40:24;5.28;;;4.38;;
12476;SDS011;6303;51.504;6.300;2023-03-03T10:43:02;5.60;;;4.40;;
12476;SDS011;6303;51.504;6.300;2023-03-03T10:45:59;5.18;;;4.30;;
12476;SDS011;6303;51.504;6.300;2023-03-03T10:48:48;6.47;;;4.93;;
12476;SDS011;6303;51.504;6.300;2023-03-03T10:51:26;6.28;;;4.40;;
12476;SDS011;6303;51.504;6.300;2023-03-03T10:54:06;6.10;;;4.70;;
12476;SDS011;6303;51.504;6.300;2023-03-03T10:56:44;5.18;;;4.20;;
12476;SDS011;6303;51.504;6.300;2023-03-03T10:59:27;4.80;;;4.18;;
12476;SDS011;6303;51.504;6.300;2023-03-03T11:02:11;5.95;;;4.55;;
12476;SDS011;6303;51.504;6.300;2023-03-03T11:04:56;5.90;;;4.10;;
12476;SDS011;6303;51.504;6.300;2023-03-03T11:07:41;6.18;;;4.60;;
12476;SDS011;6303;51.504;6.300;2023-03-03T11:10:23;5.32;;;4.00;;
12476;SDS011;6303;51.504;6.300;2023-03-03T11:13:02;5.10;;;4.30;;
12476;SDS011;6303;51.504;6.300;2023-03-03T11:15:40;5.00;;;4.10;;
12476;SDS011;6303;51.504;6.300;2023-03-03T11:18:19;5.53;;;4.15;;
12476;SDS011;6303;51.504;6.300;2023-03-03T11:20:56;5.15;;;4.05;;
12476;SDS011;6303;51.504;6.300;2023-03-03T11:23:49;5.13;;;4.20;;
12476;SDS011;6303;51.504;6.300;2023-03-03T11:26:29;5.38;;;4.00;;
12476;SDS011;6303;51.504;6.300;2023-03-03T11:29:08;5.45;;;4.30;;
12476;SDS011;6303;51.504;6.300;2023-03-03T11:31:51;4.90;;;4.10;;
12476;SDS011;6303;51.504;6.300;2023-03-03T11:34:28;5.00;;;4.13;;
12476;SDS011;6303;51.504;6.300;2023-03-03T11:37:20;4.68;;;4.10;;
12476;SDS011;6303;51.504;6.300;2023-03-03T11:39:52;5.10;;;4.30;;
12476;SDS011;6303;51.504;6.300;2023-03-03T11:42:24;5.63;;;4.25;;
12476;SDS011;6303;51.504;6.300;2023-03-03T11:44:58;5.25;;;4.03;;
12476;SDS011;6303;51.504;6.300;2023-03-03T11:47:28;5.32;;;4.35;;
12476;SDS011;6303;51.504;6.300;2023-03-03T11:50:00;5.80;;;4.22;;
12476;SDS011;6303;51.504;6.300;2023-03-03T11:52:33;4.75;;;4.25;;
12476;SDS011;6303;51.504;6.300;2023-03-03T11:55:06;4.57;;;3.85;;
12476;SDS011;6303;51.504;6.300;2023-03-03T11:57:38;5.28;;;4.20;;
12476;SDS011;6303;51.504;6.300;2023-03-03T12:00:17;5.93;;;4.30;;
12476;SDS011;6303;51.504;6.300;2023-03-03T12:05:49;5.68;;;4.20;;
12476;SDS011;6303;51.504;6.300;2023-03-03T12:08:31;5.15;;;4.25;;
12476;SDS011;6303;51.504;6.300;2023-03-03T12:11:13;5.18;;;4.32;;
12476;SDS011;6303;51.504;6.300;2023-03-03T12:13:49;5.20;;;4.18;;
12476;SDS011;6303;51.504;6.300;2023-03-03T12:16:22;5.35;;;4.43;;
12476;SDS011;6303;51.504;6.300;2023-03-03T12:19:10;6.35;;;4.78;;
12476;SDS011;6303;51.504;6.300;2023-03-03T12:24:27;5.82;;;4.32;;
12476;SDS011;6303;51.504;6.300;2023-03-03T12:27:03;4.75;;;3.90;;
12476;SDS011;6303;51.504;6.300;2023-03-03T12:29:40;5.18;;;4.03;;
12476;SDS011;6303;51.504;6.300;2023-03-03T12:32:14;5.72;;;4.38;;
12476;SDS011;6303;51.504;6.300;2023-03-03T12:34:50;4.65;;;4.00;;
12476;SDS011;6303;51.504;6.300;2023-03-03T12:37:30;5.78;;;4.32;;
12476;SDS011;6303;51.504;6.300;2023-03-03T12:40:12;5.53;;;4.40;;
12476;SDS011;6303;51.504;6.300;2023-03-03T12:42:56;5.97;;;4.60;;
12476;SDS011;6303;51.504;6.300;2023-03-03T12:45:37;5.43;;;4.20;;
12476;SDS011;6303;51.504;6.300;2023-03-03T12:48:18;5.97;;;4.47;;
12476;SDS011;6303;51.504;6.300;2023-03-03T12:50:52;6.13;;;4.55;;
12476;SDS011;6303;51.504;6.300;2023-03-03T12:56:21;7.70;;;4.28;;
12476;SDS011;6303;51.504;6.300;2023-03-03T12:58:59;7.70;;;4.63;;
12476;SDS011;6303;51.504;6.300;2023-03-03T13:01:33;7.72;;;4.13;;
12476;SDS011;6303;51.504;6.300;2023-03-03T13:04:09;5.93;;;4.70;;
12476;SDS011;6303;51.504;6.300;2023-03-03T13:06:43;6.03;;;4.38;;
12476;SDS011;6303;51.504;6.300;2023-03-03T13:09:18;9.10;;;5.82;;
12476;SDS011;6303;51.504;6.300;2023-03-03T13:12:06;6.93;;;5.53;;
12476;SDS011;6303;51.504;6.300;2023-03-03T13:14:53;5.35;;;4.32;;
12476;SDS011;6303;51.504;6.300;2023-03-03T13:17:27;5.93;;;4.00;;
12476;SDS011;6303;51.504;6.300;2023-03-03T13:20:00;4.95;;;4.20;;
12476;SDS011;6303;51.504;6.300;2023-03-03T13:22:31;5.82;;;4.70;;
12476;SDS011;6303;51.504;6.300;2023-03-03T13:25:05;4.95;;;4.00;;
12476;SDS011;6303;51.504;6.300;2023-03-03T13:27:45;5.63;;;4.07;;
12476;SDS011;6303;51.504;6.300;2023-03-03T13:30:16;5.45;;;4.47;;
12476;SDS011;6303;51.504;6.300;2023-03-03T13:32:48;4.72;;;4.20;;
12476;SDS011;6303;51.504;6.300;2023-03-03T13:35:23;5.43;;;4.28;;
12476;SDS011;6303;51.504;6.300;2023-03-03T13:37:57;5.60;;;4.25;;
12476;SDS011;6303;51.504;6.300;2023-03-03T13:40:38;5.88;;;4.85;;
12476;SDS011;6303;51.504;6.300;2023-03-03T13:43:11;7.88;;;4.82;;
12476;SDS011;6303;51.504;6.300;2023-03-03T13:45:48;6.45;;;4.60;;
12476;SDS011;6303;51.504;6.300;2023-03-03T13:48:27;5.70;;;4.47;;
12476;SDS011;6303;51.504;6.300;2023-03-03T13:51:03;5.10;;;4.50;;
12476;SDS011;6303;51.504;6.300;2023-03-03T13:53:41;5.95;;;4.85;;
12476;SDS011;6303;51.504;6.300;2023-03-03T13:56:22;5.63;;;4.20;;
12476;SDS011;6303;51.504;6.300;2023-03-03T13:59:00;5.47;;;3.90;;
12476;SDS011;6303;51.504;6.300;2023-03-03T14:01:40;6.10;;;4.30;;
12476;SDS011;6303;51.504;6.300;2023-03-03T14:04:16;5.82;;;4.25;;
12476;SDS011;6303;51.504;6.300;2023-03-03T14:06:56;5.63;;;4.50;;
12476;SDS011;6303;51.504;6.300;2023-03-03T14:12:19;5.65;;;4.32;;
12476;SDS011;6303;51.504;6.300;2023-03-03T14:14:56;6.20;;;4.55;;
12476;SDS011;6303;51.504;6.300;2023-03-03T14:17:28;4.10;;;3.70;;
12476;SDS011;6303;51.504;6.300;2023-03-03T14:20:14;5.00;;;4.20;;
12476;SDS011;6303;51.504;6.300;2023-03-03T14:22:49;6.30;;;4.32;;
12476;SDS011;6303;51.504;6.300;2023-03-03T14:25:20;5.32;;;4.65;;
12476;SDS011;6303;51.504;6.300;2023-03-03T14:28:01;6.32;;;4.68;;
12476;SDS011;6303;51.504;6.300;2023-03-03T14:30:39;6.20;;;4.22;;
12476;SDS011;6303;51.504;6.300;2023-03-03T14:33:20;4.93;;;4.03;;
12476;SDS011;6303;51.504;6.300;2023-03-03T14:35:59;6.10;;;4.35;;
12476;SDS011;6303;51.504;6.300;2023-03-03T14:38:45;5.65;;;4.20;;
12476;SDS011;6303;51.504;6.300;2023-03-03T14:41:17;5.32;;;4.20;;
12476;SDS011;6303;51.504;6.300;2023-03-03T14:43:55;5.05;;;4.18;;
12476;SDS011;6303;51.504;6.300;2023-03-03T14:46:32;4.80;;;4.25;;
12476;SDS011;6303;51.504;6.300;2023-03-03T14:49:02;6.10;;;4.55;;
12476;SDS011;6303;51.504;6.300;2023-03-03T14:51:32;6.72;;;5.22;;
12476;SDS011;6303;51.504;6.300;2023-03-03T14:54:06;6.85;;;5.55;;
12476;SDS011;6303;51.504;6.300;2023-03-03T14:56:55;8.07;;;6.18;;
12476;SDS011;6303;51.504;6.300;2023-03-03T14:59:24;7.72;;;6.50;;
12476;SDS011;6303;51.504;6.300;2023-03-03T15:01:57;7.65;;;6.15;;
12476;SDS011;6303;51.504;6.300;2023-03-03T15:04:38;8.27;;;5.88;;
12476;SDS011;6303;51.504;6.300;2023-03-03T15:07:14;7.68;;;5.60;;
12476;SDS011;6303;51.504;6.300;2023-03-03T15:09:49;6.22;;;4.97;;
12476;SDS011;6303;51.504;6.300;2023-03-03T15:12:17;6.47;;;5.15;;
12476;SDS011;6303;51.504;6.300;2023-03-03T15:14:47;7.47;;;5.07;;
12476;SDS011;6303;51.504;6.300;2023-03-03T15:17:18;6.90;;;5.03;;
12476;SDS011;6303;51.504;6.300;2023-03-03T15:19:57;6.78;;;5.55;;
12476;SDS011;6303;51.504;6.300;2023-03-03T15:22:37;6.82;;;5.10;;
12476;SDS011;6303;51.504;6.300;2023-03-03T15:25:12;6.75;;;5.07;;
12476;SDS011;6303;51.504;6.300;2023-03-03T15:27:47;7.07;;;5.00;;
12476;SDS011;6303;51.504;6.300;2023-03-03T15:30:20;6.32;;;5.00;;
12476;SDS011;6303;51.504;6.300;2023-03-03T15:32:57;5.60;;;4.40;;
12476;SDS011;6303;51.504;6.300;2023-03-03T15:35:35;6.90;;;4.75;;
12476;SDS011;6303;51.504;6.300;2023-03-03T15:38:16;5.75;;;4.50;;
12476;SDS011;6303;51.504;6.300;2023-03-03T15:40:52;5.03;;;4.22;;
12476;SDS011;6303;51.504;6.300;2023-03-03T15:43:26;5.35;;;4.35;;
12476;SDS011;6303;51.504;6.300;2023-03-03T15:46:01;6.68;;;4.75;;
12476;SDS011;6303;51.504;6.300;2023-03-03T15:48:44;5.55;;;4.32;;
12476;SDS011;6303;51.504;6.300;2023-03-03T15:51:29;6.10;;;4.13;;
12476;SDS011;6303;51.504;6.300;2023-03-03T15:54:17;5.60;;;4.63;;
12476;SDS011;6303;51.504;6.300;2023-03-03T15:57:09;5.03;;;4.22;;
12476;SDS011;6303;51.504;6.300;2023-03-03T15:59:49;4.85;;;4.10;;
12476;SDS011;6303;51.504;6.300;2023-03-03T16:02:27;4.75;;;4.10;;